Time;durP1;ratioP1;P1;durP2;ratioP2;P2;SDS_P1;SDS_P2;PMS_P1;PMS_P2;Temp;Humidity;BMP_temperature;BMP_pressure;BME280_temperature;BME280_humidity;BME280_pressure;Samples;Min_cycle;Max_cycle;Signal;HPM_P1;HPM_P2
2022/12/22 03:27:34;;;;;;;423.45;157.05;;;;;;;13.62;79.43;99308.31;4948388;29;20054;-58
2022/12/22 03:30:23;;;;;;;410.63;150.52;;;;;;;13.59;80.33;99306.06;4924186;29;20152;-56
2022/12/22 03:33:05;;;;;;;481.55;157.52;;;;;;;13.78;79.36;99306.97;4945803;29;20047;-56
2022/12/22 03:35:54;;;;;;;431.00;147.23;;;;;;;13.51;79.68;99317.97;4938149;29;20503;-60
2022/12/22 03:38:36;;;;;;;412.70;150.07;;;;;;;13.56;80.10;99320.81;4930890;29;20487;-57
2022/12/22 03:47:32;;;;;;;437.85;154.32;;;;;;;13.52;79.77;99325.81;4933541;29;20115;-58
2022/12/22 03:50:14;;;;;;;426.52;154.98;;;;;;;13.83;78.71;99316.06;4935721;29;20066;-58
2022/12/22 03:53:03;;;;;;;433.98;155.10;;;;;;;13.82;78.66;99325.19;4931290;28;20067;-56
2022/12/22 03:55:45;;;;;;;442.92;158.48;;;;;;;13.89;78.15;99320.56;4932847;29;20056;-58
2022/12/22 03:58:34;;;;;;;447.05;157.27;;;;;;;13.98;77.69;99314.88;4929130;29;20158;-59
2022/12/22 04:01:23;;;;;;;439.10;159.25;;;;;;;14.13;77.19;99320.75;4937438;29;20066;-58
2022/12/22 04:04:05;;;;;;;441.02;156.18;;;;;;;14.00;77.49;99319.00;4945801;29;20061;-55
2022/12/22 04:06:54;;;;;;;429.13;158.23;;;;;;;14.06;77.35;99326.22;4932622;29;20047;-59
2022/12/22 04:12:52;;;;;;;441.48;157.50;;;;;;;14.03;77.92;99331.25;4942775;29;20040;-56
2022/12/22 04:12:53;;;;;;;430.50;153.40;;;;;;;13.97;77.33;99332.13;4928292;29;20076;-54
2022/12/22 04:15:38;;;;;;;447.30;160.60;;;;;;;13.69;78.36;99341.47;4934096;29;20055;-55
2022/12/22 04:18:27;;;;;;;445.05;160.77;;;;;;;13.72;78.94;99343.75;4936275;29;20144;-58
2022/12/22 04:21:09;;;;;;;443.58;158.93;;;;;;;13.77;79.05;99349.28;4939962;29;20052;-59
2022/12/22 04:24:04;;;;;;;419.42;157.15;;;;;;;14.09;77.82;99343.84;4939873;29;20071;-53
2022/12/22 04:26:40;;;;;;;406.77;146.85;;;;;;;13.99;78.07;99352.44;4934176;29;20081;-57
2022/12/22 04:29:29;;;;;;;414.33;149.23;;;;;;;14.04;77.44;99352.63;4935183;29;20118;-57
2022/12/22 04:32:12;;;;;;;407.67;149.43;;;;;;;13.88;77.56;99358.56;4942115;29;20173;-57
2022/12/22 04:35:09;;;;;;;433.13;157.68;;;;;;;13.88;77.88;99363.94;4940006;29;20051;-56
2022/12/22 04:37:44;;;;;;;422.15;155.15;;;;;;;14.17;77.44;99367.03;4945155;29;20070;-59
2022/12/22 04:40:33;;;;;;;427.60;157.27;;;;;;;14.09;78.08;99362.75;4938749;29;20058;-57
2022/12/22 04:43:18;;;;;;;429.27;157.13;;;;;;;14.01;78.24;99366.53;4928846;29;20059;-56
2022/12/22 04:46:08;;;;;;;457.85;169.35;;;;;;;14.05;78.14;99361.53;4931928;29;20065;-58
2022/12/22 04:48:50;;;;;;;460.52;170.73;;;;;;;14.01;77.57;99371.94;4927971;29;20543;-57
2022/12/22 04:51:46;;;;;;;462.67;165.93;;;;;;;13.77;78.57;99370.88;4933848;29;20056;-58
2022/12/22 04:54:21;;;;;;;457.88;171.15;;;;;;;13.85;78.72;99373.31;4914724;28;20833;-57
2022/12/22 04:57:17;;;;;;;467.05;169.30;;;;;;;13.86;78.58;99374.13;4927824;29;20051;-59
2022/12/22 04:59:54;;;;;;;469.17;171.02;;;;;;;14.08;78.22;99371.88;4928597;29;20047;-55
2022/12/22 05:02:49;;;;;;;456.23;170.95;;;;;;;14.39;77.18;99362.06;4909788;29;20507;-57
2022/12/22 05:05:24;;;;;;;451.83;169.10;;;;;;;14.43;77.36;99361.38;4909274;29;20115;-58
2022/12/22 05:08:20;;;;;;;453.73;172.18;;;;;;;14.19;77.55;99365.75;4918702;29;20579;-56
2022/12/22 05:10:55;;;;;;;456.00;172.15;;;;;;;14.40;76.37;99361.00;4919764;29;20055;-57
2022/12/22 05:13:50;;;;;;;478.27;176.02;;;;;;;14.18;77.04;99350.63;4918345;29;20492;-58
2022/12/22 05:16:25;;;;;;;465.20;171.07;;;;;;;14.39;76.11;99356.66;4912611;29;20071;-55
2022/12/22 05:19:14;;;;;;;470.88;178.48;;;;;;;14.32;76.23;99361.28;4912498;29;20064;-57
2022/12/22 05:21:56;;;;;;;463.77;173.35;;;;;;;14.45;76.32;99358.47;4909920;29;20062;-55
2022/12/22 05:24:45;;;;;;;462.48;170.45;;;;;;;14.73;75.17;99362.53;4908767;29;20134;-56
2022/12/22 05:27:34;;;;;;;463.88;173.55;;;;;;;14.63;75.08;99352.25;4911621;29;20059;-57
2022/12/22 05:30:18;;;;;;;465.35;172.77;;;;;;;14.92;75.06;99347.97;4918932;29;20671;-57
2022/12/22 05:33:07;;;;;;;455.40;176.45;;;;;;;14.96;74.10;99351.91;4913460;29;20063;-56
2022/12/22 05:35:56;;;;;;;486.15;177.55;;;;;;;15.12;73.97;99344.22;4913786;29;20071;-57
2022/12/22 05:38:38;;;;;;;475.23;172.85;;;;;;;15.00;73.57;99344.97;4910154;29;20067;-58
2022/12/22 05:41:28;;;;;;;457.02;177.13;;;;;;;15.45;72.75;99344.56;4926314;29;20052;-55
2022/12/22 05:44:17;;;;;;;471.02;178.48;;;;;;;15.19;73.24;99339.53;4908623;29;20071;-56
2022/12/22 05:46:59;;;;;;;467.27;179.27;;;;;;;14.88;74.48;99338.66;4925603;29;20559;-55
2022/12/22 05:49:48;;;;;;;452.05;167.55;;;;;;;15.08;74.05;99333.84;4908540;29;20056;-58
2022/12/22 05:52:44;;;;;;;457.90;171.63;;;;;;;14.96;73.75;99332.97;4915215;29;20051;-55
2022/12/22 05:55:34;;;;;;;450.08;169.75;;;;;;;15.10;74.45;99324.69;4940195;28;20051;-57
2022/12/22 05:58:23;;;;;;;460.75;176.70;;;;;;;15.76;72.01;99320.19;4936961;28;20059;-57
2022/12/22 06:01:05;;;;;;;454.67;174.50;;;;;;;15.34;72.50;99321.00;4935363;28;20055;-55
2022/12/22 06:03:54;;;;;;;442.98;171.05;;;;;;;15.05;73.12;99318.06;4936264;28;20078;-59
2022/12/22 06:06:40;;;;;;;423.95;163.50;;;;;;;15.24;73.29;99304.53;4937029;28;20114;-55
2022/12/22 06:09:29;;;;;;;443.92;168.90;;;;;;;15.50;71.40;99297.91;4935284;28;20070;-57
2022/12/22 06:12:11;;;;;;;441.60;166.82;;;;;;;16.00;70.37;99302.13;4936986;28;20138;-55
2022/12/22 06:15:00;;;;;;;430.98;161.20;;;;;;;16.01;69.75;99299.19;4942310;28;20048;-54
2022/12/22 06:17:42;;;;;;;412.00;159.88;;;;;;;15.89;70.35;99298.31;4944541;28;20047;-55
2022/12/22 06:20:31;;;;;;;408.27;157.07;;;;;;;16.21;69.32;99292.56;4926612;29;20110;-55
2022/12/22 06:23:13;;;;;;;424.35;160.63;;;;;;;16.32;69.39;99283.63;4943607;28;20055;-55
2022/12/22 06:26:07;;;;;;;410.92;160.20;;;;;;;16.28;69.22;99285.16;4940737;28;20655;-54
2022/12/22 06:28:49;;;;;;;422.48;164.25;;;;;;;15.94;70.12;99276.00;4934549;28;20067;-55
2022/12/22 06:31:38;;;;;;;424.40;161.05;;;;;;;16.07;69.57;99269.50;4934715;28;20086;-56
2022/12/22 06:34:20;;;;;;;425.65;162.43;;;;;;;15.62;69.86;99270.88;4937802;28;20083;-56
2022/12/22 06:37:10;;;;;;;424.33;163.30;;;;;;;15.85;71.23;99262.78;4930214;28;20127;-55
2022/12/22 06:39:52;;;;;;;414.58;160.52;;;;;;;16.40;68.67;99260.75;4949071;28;20415;-54
2022/12/22 06:45:50;;;;;;;432.20;172.13;;;;;;;16.20;69.55;99255.72;4934651;28;20075;-55
2022/12/22 06:48:39;;;;;;;435.15;177.50;;;;;;;16.55;67.82;99250.22;4941125;28;20048;-58
2022/12/22 06:51:21;;;;;;;453.50;178.85;;;;;;;16.09;68.92;99261.94;4946042;28;20118;-54
2022/12/22 06:54:16;;;;;;;443.02;175.50;;;;;;;16.28;69.86;99257.22;4937954;29;20130;-54
2022/12/22 06:57:00;;;;;;;443.85;178.35;;;;;;;16.48;68.44;99249.53;4943829;29;20158;-55
2022/12/22 06:59:55;;;;;;;468.70;179.07;;;;;;;16.69;67.81;99239.13;4930186;29;20139;-53
2022/12/22 07:02:31;;;;;;;450.40;177.27;;;;;;;16.74;67.51;99236.53;4942042;29;20665;-53
2022/12/22 07:05:30;;;;;;;446.95;183.02;;;;;;;16.96;66.79;99239.38;4948147;29;20175;-57
2022/12/22 07:08:05;;;;;;;460.77;188.98;;;;;;;16.89;68.49;99236.00;4938114;29;20044;-54
2022/12/22 07:10:57;;;;;;;458.83;186.80;;;;;;;17.11;67.50;99236.13;4913849;29;20050;-56
2022/12/22 07:13:41;;;;;;;440.45;177.88;;;;;;;16.37;68.27;99231.44;4930896;29;20047;-55
2022/12/22 07:16:36;;;;;;;449.15;187.73;;;;;;;16.40;69.65;99223.66;4941697;29;20051;-54
2022/12/22 07:19:12;;;;;;;444.10;193.77;;;;;;;16.43;68.49;99220.47;4937700;29;20055;-51
2022/12/22 07:22:01;;;;;;;463.17;195.65;;;;;;;16.64;67.89;99219.00;4937690;29;20475;-58
2022/12/22 07:24:51;;;;;;;447.38;187.70;;;;;;;16.54;68.76;99215.25;4938058;29;20055;-55
2022/12/22 07:27:33;;;;;;;449.33;195.10;;;;;;;16.50;68.70;99198.66;4932130;29;20651;-57
2022/12/22 07:30:22;;;;;;;463.35;187.13;;;;;;;16.39;68.13;99203.06;4937447;29;20047;-54
2022/12/22 07:33:04;;;;;;;440.75;182.45;;;;;;;16.18;69.38;99190.97;4943399;29;20059;-54
2022/12/22 07:35:53;;;;;;;427.33;178.02;;;;;;;16.67;68.33;99190.56;4936318;28;20063;-59
2022/12/22 07:38:51;;;;;;;426.02;169.27;;;;;;;16.66;67.88;99180.78;4944112;29;20863;-55
2022/12/22 07:44:34;;;;;;;407.48;164.20;;;;;;;16.56;68.21;99175.19;4937430;29;20579;-57
2022/12/22 07:47:23;;;;;;;438.35;175.55;;;;;;;15.67;70.34;99173.59;4944613;29;20490;-56
2022/12/22 07:50:26;;;;;;;410.85;171.75;;;;;;;16.16;68.69;99160.56;4938035;29;20048;-57
2022/12/22 07:53:16;;;;;;;416.90;171.43;;;;;;;16.38;68.70;99154.53;4940213;29;20130;-54
2022/12/22 07:56:12;;;;;;;415.17;169.98;;;;;;;16.45;68.34;99152.47;4940660;29;20051;-54
2022/12/22 07:58:47;;;;;;;409.63;168.70;;;;;;;16.54;68.10;99150.22;4947686;29;20058;-56
2022/12/22 08:01:42;;;;;;;416.27;171.95;;;;;;;16.63;68.01;99146.88;4929352;29;20071;-55
2022/12/22 08:04:17;;;;;;;391.33;161.68;;;;;;;16.42;67.34;99142.97;4937784;29;20055;-58
2022/12/22 08:07:14;;;;;;;396.92;159.18;;;;;;;16.42;67.98;99147.56;4936561;29;20158;-61
2022/12/22 08:09:50;;;;;;;398.85;160.80;;;;;;;16.72;67.97;99136.47;4937060;29;20052;-54
2022/12/22 08:12:39;;;;;;;400.77;158.80;;;;;;;16.65;67.96;99135.78;4938663;29;20058;-59
2022/12/22 08:15:28;;;;;;;379.67;157.90;;;;;;;16.55;68.00;99130.19;4935433;29;20052;-57
2022/12/22 08:18:10;;;;;;;406.38;160.60;;;;;;;16.44;67.67;99135.41;4935804;29;20047;-54
2022/12/22 08:20:59;;;;;;;402.27;160.77;;;;;;;16.85;67.27;99134.53;4936419;29;20104;-57
2022/12/22 08:23:41;;;;;;;380.20;155.82;;;;;;;16.57;66.72;99128.06;4938371;29;20055;-55
2022/12/22 08:26:37;;;;;;;372.85;150.80;;;;;;;16.58;67.16;99124.28;4943930;29;20054;-54
2022/12/22 08:29:23;;;;;;;347.25;144.30;;;;;;;16.61;67.10;99118.38;4928649;29;20059;-57
2022/12/22 08:32:12;;;;;;;370.60;147.43;;;;;;;16.99;66.55;99109.59;4935564;29;20079;-58
2022/12/22 08:34:54;;;;;;;348.27;145.25;;;;;;;16.62;66.37;99110.03;4940380;29;20043;-58
2022/12/22 08:37:48;;;;;;;356.00;144.23;;;;;;;16.74;66.88;99115.38;4942575;29;20059;-54
2022/12/22 08:40:32;;;;;;;341.70;141.07;;;;;;;16.97;66.88;99109.00;4914536;29;20047;-52
2022/12/22 08:43:23;;;;;;;341.17;139.07;;;;;;;16.87;66.30;99106.13;4938181;29;20075;-53
2022/12/22 08:46:19;;;;;;;344.50;142.45;;;;;;;16.80;66.82;99103.53;4942430;29;20127;-56
2022/12/22 08:48:54;;;;;;;330.40;141.57;;;;;;;17.03;67.80;99102.59;4940520;29;20230;-54
2022/12/22 08:51:50;;;;;;;350.98;138.68;;;;;;;16.97;66.97;99103.59;4935844;29;20059;-54
2022/12/22 08:54:32;;;;;;;321.20;132.38;;;;;;;16.41;67.61;99102.56;4924589;29;20123;-57
2022/12/22 08:57:22;;;;;;;332.17;131.77;;;;;;;16.66;67.77;99095.97;4931418;29;20599;-57
2022/12/22 09:00:07;;;;;;;321.98;134.65;;;;;;;16.86;66.70;99096.34;4920633;29;20047;-55
2022/12/22 09:02:56;;;;;;;322.17;131.90;;;;;;;16.37;67.67;99093.28;4935989;29;20063;-54
2022/12/22 09:05:38;;;;;;;329.88;133.57;;;;;;;15.75;70.24;99094.78;4937711;29;20052;-54
2022/12/22 09:08:27;;;;;;;319.45;132.40;;;;;;;16.03;68.98;99093.16;4936273;29;20046;-52
2022/12/22 09:11:09;;;;;;;325.52;132.45;;;;;;;15.65;70.20;99087.25;4931178;29;20062;-58
2022/12/22 09:14:00;;;;;;;310.73;130.10;;;;;;;16.14;69.31;99076.06;4937041;29;20047;-56
2022/12/22 09:16:42;;;;;;;324.13;130.10;;;;;;;16.41;68.66;99081.75;4936748;29;20491;-52
2022/12/22 09:19:31;;;;;;;316.90;129.35;;;;;;;16.36;69.08;99086.25;4935310;29;20479;-57
2022/12/22 09:22:13;;;;;;;321.90;129.10;;;;;;;16.43;69.31;99086.88;4942636;29;20051;-54
2022/12/22 09:25:09;;;;;;;309.48;122.50;;;;;;;16.43;68.51;99076.06;4938328;29;20155;-56
2022/12/22 09:27:52;;;;;;;291.10;120.95;;;;;;;16.25;69.06;99077.91;4936039;29;20047;-54
2022/12/22 09:30:41;;;;;;;292.08;115.88;;;;;;;16.38;68.99;99071.38;4937696;29;20106;-55
2022/12/22 09:33:30;;;;;;;290.65;119.38;;;;;;;16.34;68.55;99069.41;4939440;29;20051;-53
2022/12/22 09:36:15;;;;;;;291.52;116.22;;;;;;;16.34;69.02;99067.50;4937368;29;20131;-55
2022/12/22 09:39:15;;;;;;;297.90;119.03;;;;;;;16.42;69.11;99058.97;4934255;29;20039;-55
2022/12/22 09:41:56;;;;;;;270.38;117.65;;;;;;;16.51;68.77;99059.41;4935638;29;20074;-54
2022/12/22 09:44:50;;;;;;;279.95;114.47;;;;;;;16.34;69.29;99058.56;4938858;29;20150;-55
2022/12/22 09:47:40;;;;;;;;;;;;;;;16.47;68.99;99055.56;4938596;29;20047;-58
2022/12/22 09:50:25;;;;;;;284.85;108.97;;;;;;;16.39;68.98;99048.66;4936954;29;20406;-57
2022/12/22 09:53:30;;;;;;;271.38;112.68;;;;;;;16.49;69.26;99042.59;4936190;29;20090;-56
2022/12/22 09:56:19;;;;;;;264.77;108.00;;;;;;;16.46;69.49;99043.06;4923715;29;20059;-56
2022/12/22 09:59:08;;;;;;;262.65;106.72;;;;;;;16.21;69.41;99049.66;4922191;29;20048;-58
2022/12/22 10:02:23;;;;;;;271.70;106.93;;;;;;;16.45;69.05;99044.13;4909050;29;20623;-54
2022/12/22 10:05:29;;;;;;;262.90;105.80;;;;;;;16.37;69.57;99030.97;4916993;29;20066;-55
2022/12/22 10:08:35;;;;;;;279.90;108.32;;;;;;;16.12;69.95;99034.06;4908851;29;20058;-57
2022/12/22 10:11:18;;;;;;;273.80;109.13;;;;;;;16.11;70.12;99038.66;4925936;29;20111;-53
2022/12/22 10:14:16;;;;;;;272.83;110.70;;;;;;;15.93;69.60;99038.84;4929056;29;20625;-54
2022/12/22 10:17:31;;;;;;;261.40;107.32;;;;;;;16.32;69.36;99039.03;4922889;29;20055;-55
2022/12/22 10:20:25;;;;;;;265.65;106.07;;;;;;;15.92;70.51;99040.72;4922153;29;20074;-53
2022/12/22 10:23:34;;;;;;;269.80;108.88;;;;;;;16.15;70.30;99041.72;4921115;29;20055;-54
2022/12/22 10:26:39;;;;;;;278.13;109.25;;;;;;;15.88;70.02;99033.31;4920393;29;20114;-56
2022/12/22 10:29:17;;;;;;;267.27;107.18;;;;;;;15.91;70.32;99038.25;4914514;29;20076;-54
2022/12/22 10:32:21;;;;;;;268.80;110.85;;;;;;;16.18;69.81;99023.09;4912980;29;20082;-53
2022/12/22 10:35:05;;;;;;;275.73;111.22;;;;;;;15.90;70.12;99031.19;4912616;29;20107;-53
2022/12/22 10:38:01;;;;;;;258.35;106.25;;;;;;;15.99;70.60;99032.44;4916399;29;20064;-57
2022/12/22 10:41:03;;;;;;;263.50;109.88;;;;;;;15.75;70.77;99024.44;4911332;29;20484;-52
2022/12/22 10:44:02;;;;;;;241.22;101.94;;;;;;;15.72;71.50;99029.47;4581366;29;10000763;-55
2022/12/22 10:46:49;;;;;;;275.33;114.60;;;;;;;15.75;71.13;99026.31;4919917;29;20119;-57
2022/12/22 10:49:43;;;;;;;280.48;112.50;;;;;;;15.71;71.25;99034.06;4918126;29;20654;-57
2022/12/22 10:52:44;;;;;;;269.10;115.20;;;;;;;15.61;71.27;99023.00;4919537;29;20055;-55
2022/12/22 10:55:39;;;;;;;279.92;113.80;;;;;;;15.67;71.45;99022.06;4931194;29;20825;-54
2022/12/22 10:58:20;;;;;;;250.40;109.22;;;;;;;15.72;70.80;99016.75;4930413;29;20059;-53
2022/12/22 11:01:17;;;;;;;271.20;110.65;;;;;;;15.62;71.69;99013.84;4941653;29;20075;-55
2022/12/22 11:03:53;;;;;;;284.75;112.07;;;;;;;15.42;71.64;99012.38;4931448;29;20679;-52
2022/12/22 11:06:43;;;;;;;283.85;112.25;;;;;;;15.54;71.68;99001.50;4938624;29;20404;-53
2022/12/22 11:09:27;;;;;;;280.90;113.13;;;;;;;15.58;71.82;98999.97;4932712;29;20151;-55
2022/12/22 11:12:56;;;;;;;276.20;109.95;;;;;;;15.53;72.06;99004.47;4931498;29;20141;-55
2022/12/22 11:16:25;;;;;;;269.20;113.43;;;;;;;15.38;72.21;98997.69;4941423;29;20146;-57
2022/12/22 11:19:32;;;;;;;297.55;117.10;;;;;;;15.27;72.58;98993.94;4932362;29;20155;-55
2022/12/22 11:22:13;;;;;;;294.50;117.05;;;;;;;15.45;71.99;98995.66;4937050;29;20047;-55
2022/12/22 11:25:49;;;;;;;276.45;116.82;;;;;;;15.52;72.31;99000.13;4936387;29;20067;-53
2022/12/22 11:29:02;;;;;;;305.88;117.38;;;;;;;15.31;73.19;99002.38;4937334;29;20125;-54
2022/12/22 11:32:41;;;;;;;279.88;120.53;;;;;;;15.38;73.74;98997.69;4942285;29;20062;-50
2022/12/22 11:35:46;;;;;;;306.35;124.70;;;;;;;15.30;73.44;98999.91;4910142;29;20782;-54
2022/12/22 11:38:45;;;;;;;309.05;123.53;;;;;;;15.37;73.37;98992.50;4940682;29;20062;-54
2022/12/22 11:42:01;;;;;;;320.17;126.22;;;;;;;15.42;73.04;98993.44;4934632;29;20096;-56
2022/12/22 11:44:58;;;;;;;313.17;127.78;;;;;;;15.23;73.53;98998.16;4930768;29;20165;-54
2022/12/22 11:48:02;;;;;;;;;;;;;;;15.23;73.36;98989.25;4936025;29;20142;-55
2022/12/22 11:50:46;;;;;;;326.45;124.10;;;;;;;15.32;74.05;98987.78;4936882;29;19930;-54
2022/12/22 11:53:58;;;;;;;332.48;131.50;;;;;;;15.28;72.81;98978.53;4935158;29;20062;-55
2022/12/22 11:57:18;;;;;;;329.73;131.38;;;;;;;15.12;74.20;98976.56;4935999;29;20047;-53
2022/12/22 12:00:14;;;;;;;323.08;128.57;;;;;;;15.11;73.85;98983.00;4909448;29;20059;-57
2022/12/22 12:03:01;;;;;;;349.23;133.55;;;;;;;14.91;74.92;98983.41;4935765;29;20051;-52
2022/12/22 12:06:15;;;;;;;334.80;134.48;;;;;;;15.00;74.47;98990.91;4930765;29;20142;-57
2022/12/22 12:09:41;;;;;;;344.33;133.38;;;;;;;14.87;74.63;98989.25;4926186;29;20134;-58
2022/12/22 12:12:47;;;;;;;339.92;132.15;;;;;;;14.73;75.56;99000.53;4878463;29;20150;-57
2022/12/22 12:15:59;;;;;;;332.75;129.85;;;;;;;14.70;75.65;98992.91;4942210;29;20039;-52
2022/12/22 12:18:58;;;;;;;334.45;130.35;;;;;;;14.78;75.63;98997.97;4944994;29;20419;-50
2022/12/22 12:21:58;;;;;;;344.75;131.00;;;;;;;14.76;74.58;99000.06;4940061;29;20126;-55
2022/12/22 12:24:39;;;;;;;351.15;133.93;;;;;;;14.71;75.38;98986.44;4936615;29;20065;-57
2022/12/22 12:27:55;;;;;;;347.55;132.93;;;;;;;14.79;75.64;98995.03;4932966;29;20049;-56
2022/12/22 12:30:55;;;;;;;350.58;133.20;;;;;;;14.88;74.07;98992.78;4936941;29;20043;-54
2022/12/22 12:34:02;;;;;;;340.40;133.18;;;;;;;14.81;74.59;98989.41;4935122;29;20068;-57
2022/12/22 12:36:54;;;;;;;355.45;132.85;;;;;;;14.94;74.59;98991.84;4937790;29;20065;-57
2022/12/22 12:40:00;;;;;;;350.95;133.32;;;;;;;14.81;74.80;98998.31;4937007;29;20051;-56
2022/12/22 12:42:52;;;;;;;356.42;134.70;;;;;;;14.62;76.03;99000.28;4938069;29;20145;-54
2022/12/22 12:45:39;;;;;;;359.95;135.95;;;;;;;14.70;76.16;99001.81;4932876;29;20043;-55
2022/12/22 12:48:29;;;;;;;382.13;139.20;;;;;;;14.63;75.47;98999.22;4938877;29;20135;-56
2022/12/22 12:51:46;;;;;;;394.42;137.80;;;;;;;14.75;75.69;98995.72;4931350;29;20055;-55
2022/12/22 12:54:50;;;;;;;386.13;145.23;;;;;;;14.58;76.52;98993.72;4931801;29;20054;-58
2022/12/22 12:57:48;;;;;;;401.88;147.07;;;;;;;14.21;77.42;98988.44;4939826;29;20376;-56
2022/12/22 13:00:42;;;;;;;385.00;141.73;;;;;;;14.25;77.22;98984.25;4944319;29;20058;-56
2022/12/22 13:03:41;;;;;;;373.23;141.43;;;;;;;14.32;77.01;98994.09;4929740;29;20098;-59
2022/12/22 13:07:03;;;;;;;;;;;;;;;14.08;77.60;98994.88;4926764;29;20044;-56
2022/12/22 13:10:18;;;;;;;395.23;143.63;;;;;;;14.14;77.98;99003.94;4927039;29;19927;-54
2022/12/22 13:13:07;;;;;;;391.95;141.45;;;;;;;14.22;77.95;99002.78;4943277;29;20059;-53
2022/12/22 13:16:01;;;;;;;398.65;146.88;;;;;;;14.26;77.83;99004.78;4937140;29;20048;-56
2022/12/22 13:18:57;;;;;;;399.35;141.50;;;;;;;14.09;78.11;99001.09;4934945;29;20071;-57
2022/12/22 13:21:56;;;;;;;406.42;142.18;;;;;;;13.87;78.88;99009.69;4937271;29;20070;-52
2022/12/22 13:24:43;;;;;;;392.98;143.75;;;;;;;14.17;78.05;99018.81;4939648;29;20074;-59
2022/12/22 13:27:36;;;;;;;389.15;142.68;;;;;;;14.18;77.51;99024.00;4936428;29;20051;-55
2022/12/22 13:30:27;;;;;;;379.60;142.05;;;;;;;14.39;77.69;99030.75;4933072;29;20900;-58
2022/12/22 13:33:26;;;;;;;412.95;148.50;;;;;;;14.03;78.59;99026.28;4937929;29;20055;-57
2022/12/22 13:36:04;;;;;;;405.90;145.65;;;;;;;13.82;78.75;99024.91;4936848;29;20055;-60
2022/12/22 13:39:08;;;;;;;392.05;142.13;;;;;;;13.85;79.28;99027.13;4935453;29;20130;-58
2022/12/22 13:41:56;;;;;;;;;;;;;;;14.08;78.47;99035.34;4937473;29;20462;-54
2022/12/22 13:44:40;;;;;;;378.95;134.00;;;;;;;14.06;78.21;99034.75;4937797;29;20328;-57
2022/12/22 13:47:35;;;;;;;388.73;139.38;;;;;;;13.89;78.80;99025.63;4941780;28;20174;-58
2022/12/22 13:50:31;;;;;;;394.40;140.52;;;;;;;14.08;77.69;99029.09;4934298;29;20055;-55
2022/12/22 13:53:36;;;;;;;400.13;137.43;;;;;;;14.18;78.24;99037.50;4942014;29;20047;-55
2022/12/22 13:56:50;;;;;;;374.38;133.02;;;;;;;14.08;77.98;99026.41;4938542;28;20051;-56
2022/12/22 13:59:51;;;;;;;378.90;137.18;;;;;;;13.97;77.62;99029.91;4259194;29;10000361;-59
2022/12/22 14:02:34;;;;;;;377.70;136.60;;;;;;;13.77;78.38;99028.28;4935985;29;20154;-58
2022/12/22 14:05:25;;;;;;;373.15;135.88;;;;;;;14.07;78.24;99041.78;4921307;29;20051;-57
2022/12/22 14:08:21;;;;;;;371.63;133.73;;;;;;;14.06;77.68;99039.31;4922883;29;20055;-59
2022/12/22 14:11:03;;;;;;;406.75;137.95;;;;;;;14.16;77.47;99039.59;4922395;29;20111;-60
2022/12/22 14:13:59;;;;;;;361.02;132.05;;;;;;;13.81;78.68;99037.56;4926401;29;20056;-59
2022/12/22 14:16:34;;;;;;;370.52;133.82;;;;;;;14.13;77.58;99034.66;4929452;29;20058;-57
2022/12/22 14:19:25;;;;;;;382.08;130.32;;;;;;;14.12;77.41;99048.38;4909325;29;20134;-61
2022/12/22 14:22:20;;;;;;;360.63;130.40;;;;;;;14.05;77.21;99049.28;4913455;29;20051;-55
2022/12/22 14:25:23;;;;;;;367.85;129.50;;;;;;;13.88;77.70;99059.88;4580705;29;10000642;-60
2022/12/22 14:27:59;;;;;;;385.15;129.48;;;;;;;13.83;78.22;99062.47;4924304;29;20427;-56
2022/12/22 14:30:58;;;;;;;386.13;131.48;;;;;;;14.09;76.66;99058.56;4927313;29;20494;-60
2022/12/22 14:33:35;;;;;;;392.33;132.77;;;;;;;13.85;76.65;99054.97;4924224;29;20043;-59
2022/12/22 14:36:25;;;;;;;389.83;127.72;;;;;;;13.89;76.70;99061.53;4931916;29;20535;-59
2022/12/22 14:39:30;;;;;;;407.60;130.93;;;;;;;14.01;76.36;99067.00;4927301;29;20071;-54
2022/12/22 14:42:19;;;;;;;385.33;126.72;;;;;;;13.41;78.07;99062.31;4919245;29;20095;-58
2022/12/22 14:45:01;;;;;;;384.67;130.02;;;;;;;14.03;76.09;99055.97;4935825;29;20062;-54
2022/12/22 14:47:59;;;;;;;391.17;127.10;;;;;;;13.85;76.55;99057.66;4912391;29;20139;-53
2022/12/22 14:50:35;;;;;;;396.40;126.00;;;;;;;13.80;77.06;99057.50;4936742;29;20047;-53
2022/12/22 14:53:31;;;;;;;397.50;126.95;;;;;;;13.63;77.50;99054.59;4917911;29;20172;-58
2022/12/22 14:56:19;;;;;;;393.70;130.40;;;;;;;13.73;77.54;99062.16;4932123;29;20102;-54
2022/12/22 14:59:27;;;;;;;378.38;125.60;;;;;;;13.77;77.42;99066.03;4948394;28;20566;-54
2022/12/22 15:02:19;;;;;;;406.30;128.20;;;;;;;13.93;76.83;99061.06;4938135;29;20052;-53
2022/12/22 15:05:36;;;;;;;;;;;;;;;14.00;76.80;99056.41;4948147;29;20047;-56
2022/12/22 15:08:43;;;;;;;402.42;125.85;;;;;;;13.92;76.34;99059.44;4928463;29;19926;-55
2022/12/22 15:11:42;;;;;;;417.33;131.30;;;;;;;13.52;77.38;99060.72;4919983;29;20059;-54
2022/12/22 15:14:30;;;;;;;411.80;130.65;;;;;;;13.55;77.33;99064.84;4947786;29;20055;-58
2022/12/22 15:17:30;;;;;;;401.55;127.72;;;;;;;13.46;77.29;99062.44;4937881;29;20060;-52
2022/12/22 15:20:12;;;;;;;389.40;127.25;;;;;;;13.54;77.45;99063.22;4943673;29;20051;-55
2022/12/22 15:23:02;;;;;;;404.73;126.25;;;;;;;13.45;77.49;99055.44;4937967;29;20068;-58
2022/12/22 15:25:51;;;;;;;383.98;126.05;;;;;;;13.65;77.11;99052.50;4591008;29;10000275;-55
2022/12/22 15:28:40;;;;;;;396.08;128.32;;;;;;;13.58;77.02;99048.22;4936799;29;20052;-53
2022/12/22 15:31:29;;;;;;;389.60;125.78;;;;;;;13.68;76.86;99048.50;4933381;29;20055;-56
2022/12/22 15:34:26;;;;;;;403.45;127.20;;;;;;;13.71;76.32;99048.06;4937192;29;20366;-53
2022/12/22 15:37:19;;;;;;;404.88;129.52;;;;;;;13.59;76.36;99050.69;4923679;29;20139;-55
2022/12/22 15:40:20;;;;;;;388.90;127.10;;;;;;;13.81;76.37;99047.53;4935659;29;20065;-57
2022/12/22 15:43:03;;;;;;;398.80;124.25;;;;;;;13.71;76.08;99048.88;4939060;28;20075;-50
2022/12/22 15:46:16;;;;;;;403.58;127.55;;;;;;;13.54;76.91;99052.44;4938893;29;20559;-55
2022/12/22 15:48:58;;;;;;;398.88;130.70;;;;;;;13.37;77.13;99052.19;4937516;29;20490;-55
2022/12/22 15:51:57;;;;;;;406.10;128.02;;;;;;;13.63;76.74;99051.09;4939419;29;20059;-53
2022/12/22 15:54:53;;;;;;;402.15;130.27;;;;;;;13.46;76.93;99051.66;4941259;29;20051;-54
2022/12/22 15:57:43;;;;;;;392.27;129.95;;;;;;;13.60;77.39;99062.31;4939672;29;20078;-53
2022/12/22 16:00:27;;;;;;;393.10;130.32;;;;;;;13.80;76.54;99065.59;4936387;29;20043;-56
2022/12/22 16:03:16;;;;;;;403.63;129.77;;;;;;;13.78;76.71;99062.31;4940780;29;20063;-55
2022/12/22 16:06:05;;;;;;;405.55;132.40;;;;;;;13.67;76.18;99054.97;4937126;29;20794;-54
2022/12/22 16:08:53;;;;;;;421.27;135.95;;;;;;;13.56;77.22;99050.31;4924059;28;20055;-54
2022/12/22 16:11:44;;;;;;;396.75;129.93;;;;;;;13.75;76.83;99049.25;4937505;29;20409;-54
2022/12/22 16:14:26;;;;;;;398.20;132.27;;;;;;;13.95;76.36;99050.88;4938355;29;20110;-49
2022/12/22 16:17:31;;;;;;;429.88;136.13;;;;;;;13.73;77.17;99045.16;4936588;29;20066;-54
2022/12/22 16:20:14;;;;;;;415.15;132.48;;;;;;;13.78;76.45;99038.03;4935831;29;20040;-55
2022/12/22 16:23:04;;;;;;;420.92;132.98;;;;;;;13.82;75.99;99041.91;4940338;29;20047;-50
2022/12/22 16:25:46;;;;;;;409.45;132.70;;;;;;;13.85;76.07;99044.16;4924462;29;20055;-56
2022/12/22 16:28:41;;;;;;;434.08;143.07;;;;;;;14.10;75.37;99041.34;4592509;29;10000033;-53
2022/12/22 16:31:24;;;;;;;430.60;144.70;;;;;;;14.21;75.40;99041.59;4934201;29;20051;-59